Time;durP1;ratioP1;P1;durP2;ratioP2;P2;SDS_P1;SDS_P2;PMS_P1;PMS_P2;Temp;Humidity;BMP_temperature;BMP_pressure;BME280_temperature;BME280_humidity;BME280_pressure;Samples;Min_cycle;Max_cycle;Signal;HPM_P1;HPM_P2
2022/12/17 13:06:40;;;;;;;;;55.75;43.25;;;;;6.65;53.51;102088.03;5078174;28;45405;-75
2022/12/17 13:09:14;;;;;;;;;57.75;42.75;;;;;6.26;54.17;102080.88;5078009;27;46480;-75
2022/12/17 13:11:49;;;;;;;;;45.75;39.50;;;;;6.01;54.31;102017.78;5076257;27;45387;-74
2022/12/17 13:14:20;;;;;;;;;67.25;50.00;;;;;6.75;54.18;102076.34;5077525;28;45517;-74
2022/12/17 13:16:46;;;;;;;;;56.00;43.00;;;;;6.40;53.51;102072.66;5078052;28;45301;-75
2022/12/17 13:19:34;;;;;;;;;52.50;45.50;;;;;6.34;53.71;102073.66;5077810;28;45267;-75
2022/12/17 13:22:15;;;;;;;;;52.50;43.75;;;;;6.64;54.35;102059.78;5077989;27;45428;-75
2022/12/17 13:24:43;;;;;;;;;57.25;43.00;;;;;6.70;54.64;102068.47;5078056;27;45349;-75
2022/12/17 13:27:30;;;;;;;;;61.25;50.75;;;;;6.89;53.81;102065.41;5078157;27;45299;-75
2022/12/17 13:29:58;;;;;;;;;56.50;45.00;;;;;6.78;53.86;102070.09;5077861;28;45345;-75
2022/12/17 13:32:39;;;;;;;;;57.00;46.75;;;;;6.42;53.80;102076.13;5077060;28;45430;-75
2022/12/17 13:35:26;;;;;;;;;54.50;45.50;;;;;6.05;55.29;102072.44;5076565;28;45462;-75
2022/12/17 13:38:03;;;;;;;;;53.50;44.75;;;;;5.77;55.95;102066.75;5078556;27;45388;-75
2022/12/17 13:40:43;;;;;;;;;57.00;44.25;;;;;5.40;56.20;102025.06;5079046;27;46430;-75
2022/12/17 13:43:18;;;;;;;;;51.75;43.50;;;;;5.51;55.71;102009.88;5079800;27;45390;-77
2022/12/17 13:45:44;;;;;;;;;59.00;44.00;;;;;5.68;55.60;102059.88;5078824;27;45226;-75
2022/12/17 13:48:20;;;;;;;;;52.75;44.25;;;;;5.61;56.54;102052.91;5076507;28;45608;-75
2022/12/17 13:51:01;;;;;;;;;32.25;25.50;;;;;5.97;55.54;102058.44;5077269;27;46450;-75
2022/12/17 13:53:28;;;;;;;;;61.25;45.25;;;;;6.03;55.14;102065.44;5084984;27;45459;-76
2022/12/17 13:55:55;;;;;;;;;51.25;43.25;;;;;5.82;55.67;102054.31;5080356;27;45384;-75
2022/12/17 13:58:30;;;;;;;;;57.25;47.00;;;;;5.68;56.32;102046.63;5080714;27;45478;-76
2022/12/17 14:01:07;;;;;;;;;55.50;45.00;;;;;5.10;56.66;101981.47;5086701;27;48315;-77
2022/12/17 14:03:33;;;;;;;;;54.00;46.50;;;;;5.75;56.53;102057.09;5077077;27;45518;-77
2022/12/17 14:05:58;;;;;;;;;54.75;45.75;;;;;5.94;56.21;102065.56;5088391;27;45534;-77
2022/12/17 14:08:29;;;;;;;;;53.50;43.50;;;;;5.76;56.44;102058.84;5087704;27;45437;-77
2022/12/17 14:13:41;;;;;;;;;52.75;42.75;;;;;5.76;55.67;102061.50;5090758;27;45412;-77
2022/12/17 14:16:07;;;;;;;;;47.75;42.25;;;;;5.89;56.26;102047.13;5081437;27;45455;-76
2022/12/17 14:18:33;;;;;;;;;55.50;43.00;;;;;5.80;55.30;102066.69;5086114;27;45488;-76
2022/12/17 14:20:59;;;;;;;;;52.50;43.75;;;;;5.64;55.78;102057.28;5100167;27;46303;-75
2022/12/17 14:23:32;;;;;;;;;57.00;42.25;;;;;5.75;56.25;102080.94;5071424;27;45547;-76
2022/12/17 14:25:58;;;;;;;;;44.50;39.50;;;;;5.59;55.85;102057.38;5074443;27;45551;-75
2022/12/17 14:28:29;;;;;;;;;47.75;42.00;;;;;5.20;57.04;102038.63;5071553;27;45489;-75
2022/12/17 14:31:17;;;;;;;;;58.75;44.50;;;;;5.60;56.07;102064.44;5082226;27;46143;-75
2022/12/17 14:33:42;;;;;;;;;51.25;42.00;;;;;5.36;56.19;102018.94;5079007;27;45412;-75
2022/12/17 14:36:16;;;;;;;;;49.25;39.75;;;;;5.39;56.17;102053.28;5088793;27;45559;-75
2022/12/17 14:38:59;;;;;;;;;49.50;40.50;;;;;5.31;56.61;102097.53;5078707;27;45576;-76
2022/12/17 14:44:24;;;;;;;;;42.25;37.00;;;;;5.11;57.82;102096.97;5086257;27;45436;-75
2022/12/17 14:46:53;;;;;;;;;53.25;42.50;;;;;4.81;57.51;102025.13;5083367;27;45420;-76
2022/12/17 14:49:20;;;;;;;;;57.50;39.25;;;;;4.79;57.20;102001.34;5091641;27;45532;-76
2022/12/17 14:51:47;;;;;;;;;51.75;41.75;;;;;5.37;57.29;102070.97;5078100;27;46474;-76
2022/12/17 14:54:18;;;;;;;;;44.00;39.00;;;;;5.14;57.09;102065.16;5087966;27;45737;-76
2022/12/17 14:56:46;;;;;;;;;49.50;41.50;;;;;4.97;57.82;102063.66;5086614;27;45408;-76
2022/12/17 14:59:34;;;;;;;;;51.75;40.50;;;;;4.98;58.08;102060.13;5079791;27;45457;-76
2022/12/17 15:02:08;;;;;;;;;59.25;43.00;;;;;4.59;57.80;102014.84;5063130;27;45390;-76
2022/12/17 15:04:36;;;;;;;;;52.75;42.75;;;;;4.84;57.73;102059.44;5072987;27;45616;-76
2022/12/17 15:07:02;;;;;;;;;52.00;44.25;;;;;4.70;58.25;102072.88;5075911;27;45475;-76
2022/12/17 15:09:28;;;;;;;;;55.75;40.75;;;;;4.67;58.24;102071.13;5091299;27;45763;-76
2022/12/17 15:11:53;;;;;;;;;52.00;40.25;;;;;4.36;58.60;102050.38;5111100;27;46248;-76
2022/12/17 15:14:19;;;;;;;;;50.50;41.25;;;;;4.41;58.72;102068.81;5086406;27;45338;-76
2022/12/17 15:16:45;;;;;;;;;53.75;43.00;;;;;4.42;58.61;102053.84;5074255;27;45583;-76
2022/12/17 15:19:11;;;;;;;;;48.00;40.50;;;;;4.03;59.38;102022.59;5089067;27;45388;-76
2022/12/17 15:21:37;;;;;;;;;53.25;41.75;;;;;4.36;59.70;102055.66;5077569;27;45391;-76
2022/12/17 15:24:03;;;;;;;;;50.75;41.75;;;;;4.33;59.30;102049.53;5089215;27;45412;-76
2022/12/17 15:26:28;;;;;;;;;59.25;46.25;;;;;4.07;59.60;102024.31;5078908;27;45468;-73
2022/12/17 15:28:53;;;;;;;;;57.00;45.00;;;;;4.02;59.34;101987.41;5077211;27;45326;-77
2022/12/17 15:31:19;;;;;;;;;46.00;41.00;;;;;3.94;59.28;101978.72;5090394;27;45516;-74
2022/12/17 15:33:44;;;;;;;;;58.00;45.25;;;;;4.39;58.89;102070.63;5076782;27;45467;-74
2022/12/17 15:36:10;;;;;;;;;60.75;45.50;;;;;4.39;59.57;102089.09;5083189;27;45878;-75
2022/12/17 15:38:36;;;;;;;;;57.75;46.50;;;;;4.44;59.22;102084.66;5079663;27;45530;-74
2022/12/17 15:43:09;;;;;;;;;52.50;42.75;;;;;4.50;58.86;102088.97;5087440;27;45410;-74
2022/12/17 15:43:48;;;;;;;;;47.50;43.50;;;;;3.95;58.80;102006.84;5072119;27;45490;-75
2022/12/17 15:46:14;;;;;;;;;43.75;40.75;;;;;4.41;59.40;102089.09;5087041;27;45420;-76
2022/12/17 15:48:39;;;;;;;;;55.00;48.00;;;;;4.12;58.65;102040.13;5073783;27;45408;-75
2022/12/17 15:51:05;;;;;;;;;61.50;49.00;;;;;4.18;58.84;102048.84;5087743;27;46421;-76
2022/12/17 15:53:30;;;;;;;;;52.50;42.25;;;;;3.58;58.23;101959.75;5075725;27;45416;-76
2022/12/17 15:55:59;;;;;;;;;58.25;47.00;;;;;4.16;58.52;102062.97;5081848;27;45898;-77
2022/12/17 15:58:25;;;;;;;;;57.50;47.50;;;;;4.30;59.07;102092.72;5083815;27;45462;-76
2022/12/17 16:00:50;;;;;;;;;51.00;42.00;;;;;4.26;58.93;102114.78;5082453;27;46989;-76
2022/12/17 16:03:15;;;;;;;;;52.50;42.00;;;;;4.24;59.42;102113.03;5076440;27;45519;-76
2022/12/17 16:05:41;;;;;;;;;56.25;44.00;;;;;4.23;58.92;102108.69;5079802;27;45381;-76
2022/12/17 16:08:06;;;;;;;;;51.75;42.50;;;;;4.19;59.14;102100.75;5080636;27;45505;-76
2022/12/17 16:10:32;;;;;;;;;63.75;49.50;;;;;3.99;59.15;102064.00;5082647;27;46383;-77
2022/12/17 16:12:57;;;;;;;;;62.25;49.25;;;;;4.16;59.41;102102.59;5073060;27;45508;-77
2022/12/17 16:15:22;;;;;;;;;64.50;54.00;;;;;4.01;60.74;102095.69;5071271;27;45679;-75
2022/12/17 16:17:48;;;;;;;;;65.25;53.50;;;;;4.02;60.77;102114.16;5069335;27;45656;-75
2022/12/17 16:20:13;;;;;;;;;64.00;52.00;;;;;3.96;60.17;102098.38;5068317;27;46223;-77
2022/12/17 16:22:38;;;;;;;;;69.75;53.00;;;;;3.60;61.09;102036.25;5073688;27;45436;-77
2022/12/17 16:25:04;;;;;;;;;65.50;50.00;;;;;3.91;60.44;102089.63;5072068;27;45563;-76
2022/12/17 16:27:30;;;;;;;;;67.50;53.75;;;;;3.87;60.83;102093.19;5070691;27;45599;-77
2022/12/17 16:29:55;;;;;;;;;64.50;52.75;;;;;3.84;61.28;102093.22;5072855;27;45386;-80
2022/12/17 16:32:20;;;;;;;;;64.25;49.00;;;;;3.83;60.69;102097.63;5069931;28;45464;-79
2022/12/17 16:34:46;;;;;;;;;66.50;51.00;;;;;3.48;61.21;102055.72;5073307;27;45933;-78
2022/12/17 16:37:11;;;;;;;;;56.75;46.50;;;;;3.57;61.14;102063.53;5072882;27;45461;-79
2022/12/17 16:39:37;;;;;;;;;66.00;50.50;;;;;3.70;61.31;102117.97;5075816;27;46207;-78
2022/12/17 16:42:02;;;;;;;;;58.75;46.75;;;;;3.69;60.82;102118.84;5073364;27;45477;-77
2022/12/17 16:44:28;;;;;;;;;63.00;47.75;;;;;3.69;60.88;102112.72;5075700;27;45563;-77
2022/12/17 16:46:53;;;;;;;;;54.25;42.25;;;;;3.67;60.88;102104.81;5074539;27;45551;-77
2022/12/17 16:49:21;;;;;;;;;75.00;56.00;;;;;3.61;61.50;102086.38;5072811;27;45963;-79
2022/12/17 16:51:50;;;;;;;;;60.25;51.25;;;;;3.51;60.68;102088.22;5074678;27;45731;-77
2022/12/17 16:54:22;;;;;;;;;55.50;44.50;;;;;3.25;61.23;102064.69;5076758;27;45419;-76
2022/12/17 16:56:48;;;;;;;;;58.50;48.00;;;;;3.34;60.82;102093.63;5085217;27;45410;-77
2022/12/17 16:59:15;;;;;;;;;51.00;42.00;;;;;3.15;61.07;102060.38;5075560;27;46102;-74
2022/12/17 17:01:43;;;;;;;;;54.25;45.00;;;;;3.31;61.10;102092.78;5080170;27;45665;-76
2022/12/17 17:04:09;;;;;;;;;50.50;42.00;;;;;3.16;60.28;102110.47;5069938;27;45837;-78
2022/12/17 17:06:44;;;;;;;;;50.50;41.00;;;;;3.15;60.37;102111.34;5075758;27;45658;-79
2022/12/17 17:09:11;;;;;;;;;49.25;42.00;;;;;2.83;60.16;102045.66;5080246;27;46538;-77
2022/12/17 17:11:37;;;;;;;;;60.25;50.75;;;;;2.90;61.23;102017.47;5088420;27;45498;-76
2022/12/17 17:14:05;;;;;;;;;59.00;50.25;;;;;3.38;61.20;102085.72;5077252;27;45511;-77
2022/12/17 17:16:32;;;;;;;;;63.75;51.50;;;;;3.26;61.37;102070.84;5079856;27;45662;-77
2022/12/17 17:18:58;;;;;;;;;65.25;53.00;;;;;3.02;62.28;102101.75;5068916;27;45786;-75
2022/12/17 17:21:29;;;;;;;;;57.00;45.50;;;;;2.61;62.41;102047.53;5073238;27;45603;-75
2022/12/17 17:24:05;;;;;;;;;54.75;41.25;;;;;2.69;63.25;102057.13;5073774;27;45422;-76
2022/12/17 17:26:33;;;;;;;;;66.75;52.75;;;;;2.97;62.47;102088.63;5069654;27;45419;-76
2022/12/17 17:28:58;;;;;;;;;70.25;53.75;;;;;2.76;63.54;102099.28;5064589;28;45913;-77
2022/12/17 17:31:24;;;;;;;;;60.25;50.00;;;;;2.84;63.81;102113.28;5072029;28;46011;-78
2022/12/17 17:33:51;;;;;;;;;69.50;51.75;;;;;2.63;64.28;102106.34;5070778;27;45543;-77
2022/12/17 17:36:21;;;;;;;;;65.50;51.75;;;;;2.55;64.35;102116.06;5097163;27;45838;-76
2022/12/17 17:38:48;;;;;;;;;53.50;42.00;;;;;2.32;65.79;102122.28;5075976;28;46753;-76
2022/12/17 17:41:16;;;;;;;;;68.75;52.25;;;;;2.20;64.90;102083.72;5076110;28;45451;-76
2022/12/17 17:43:42;;;;;;;;;63.00;52.50;;;;;2.57;63.90;102127.47;5072763;28;45486;-76
2022/12/17 17:46:11;;;;;;;;;66.75;55.00;;;;;2.72;63.64;102130.03;5076312;28;45509;-76
2022/12/17 17:48:37;;;;;;;;;71.50;55.75;;;;;2.19;63.78;102040.69;5075957;28;45622;-77
2022/12/17 17:51:06;;;;;;;;;76.75;60.00;;;;;2.74;63.51;102112.47;5075461;28;46009;-77
2022/12/17 17:53:32;;;;;;;;;69.25;53.50;;;;;2.83;64.00;102108.91;5076254;28;45434;-75
2022/12/17 17:56:06;;;;;;;;;66.75;51.25;;;;;2.70;63.20;102094.94;5073606;28;45597;-76
2022/12/17 17:58:33;;;;;;;;;70.50;54.25;;;;;2.86;63.46;102111.50;5074186;28;46317;-77
2022/12/17 18:01:05;;;;;;;;;68.25;55.75;;;;;2.51;63.29;102049.31;5075611;28;45549;-77
2022/12/17 18:03:31;;;;;;;;;80.25;61.00;;;;;2.44;63.65;102037.06;5075918;28;45353;-76
2022/12/17 18:06:00;;;;;;;;;77.00;61.25;;;;;2.72;63.52;102102.81;5074572;28;45353;-76
2022/12/17 18:08:30;;;;;;;;;73.75;59.25;;;;;2.72;63.66;102084.38;5075419;28;45413;-78
2022/12/17 18:11:00;;;;;;;;;75.00;59.00;;;;;2.68;62.51;102076.47;5091338;27;45422;-75
2022/12/17 18:16:11;;;;;;;;;74.00;59.75;;;;;2.45;64.15;102089.75;5076691;28;45373;-75
2022/12/17 18:18:36;;;;;;;;;71.25;56.00;;;;;2.49;63.88;102095.88;5076364;27;46164;-75
2022/12/17 18:21:09;;;;;;;;;59.75;48.50;;;;;2.41;63.86;102097.69;5091973;27;46295;-75
2022/12/17 18:23:36;;;;;;;;;66.50;55.00;;;;;2.48;63.52;102110.84;5067237;27;45519;-74
2022/12/17 18:26:04;;;;;;;;;68.00;55.00;;;;;2.48;63.47;102104.66;5061353;28;45450;-75
2022/12/17 18:28:30;;;;;;;;;63.00;46.75;;;;;2.19;63.50;102060.88;5079157;27;46166;-75
2022/12/17 18:30:55;;;;;;;;;75.75;57.00;;;;;2.27;63.05;102069.63;5089218;27;45353;-74
2022/12/17 18:33:21;;;;;;;;;44.00;31.50;;;;;2.28;63.26;102073.13;5076943;27;45374;-75
2022/12/17 18:35:46;;;;;;;;;66.00;52.50;;;;;2.44;63.60;102113.47;5092103;27;45335;-75
2022/12/17 18:38:11;;;;;;;;;66.50;53.50;;;;;2.07;63.70;102039.88;5077033;27;45385;-75
2022/12/17 18:40:37;;;;;;;;;68.00;52.50;;;;;2.57;63.93;102133.63;5085045;27;45298;-74
2022/12/17 18:45:46;;;;;;;;;68.00;54.75;;;;;2.50;63.83;102129.25;5080408;27;45450;-76
2022/12/17 18:48:11;;;;;;;;;72.75;57.00;;;;;2.50;63.13;102108.19;5089339;27;45382;-76
2022/12/17 18:50:36;;;;;;;;;74.00;57.25;;;;;2.11;63.66;102038.97;5069514;27;45699;-75
2022/12/17 18:53:02;;;;;;;;;73.50;59.50;;;;;2.62;63.70;102137.13;5070718;27;45439;-75
2022/12/17 18:55:27;;;;;;;;;69.00;53.75;;;;;2.12;63.72;102075.81;5092907;27;45549;-75
2022/12/17 18:57:52;;;;;;;;;71.25;54.75;;;;;2.50;63.30;102145.94;5070870;27;45374;-74
2022/12/17 19:00:18;;;;;;;;;63.75;54.00;;;;;1.94;63.90;102049.53;5074078;27;45457;-74
2022/12/17 19:02:43;;;;;;;;;69.50;55.75;;;;;2.57;63.04;102143.28;5066877;27;45500;-74
2022/12/17 19:05:08;;;;;;;;;79.50;61.50;;;;;2.53;63.25;102147.69;5055341;28;45838;-74
2022/12/17 19:07:34;;;;;;;;;70.25;55.75;;;;;2.52;63.16;102138.00;5096921;27;47387;-74
2022/12/17 19:09:59;;;;;;;;;74.00;56.00;;;;;1.94;64.54;102086.38;5083400;27;45428;-75
2022/12/17 19:12:25;;;;;;;;;71.00;55.00;;;;;1.89;64.80;102073.25;5108968;27;45477;-75
2022/12/17 19:14:50;;;;;;;;;73.00;58.00;;;;;2.11;64.42;102092.50;5078391;27;45474;-74
2022/12/17 19:17:16;;;;;;;;;83.00;59.00;;;;;2.37;64.03;102123.13;5071772;27;45313;-76
2022/12/17 19:19:41;;;;;;;;;71.50;56.00;;;;;2.45;63.43;102138.94;5064944;27;45613;-73
2022/12/17 19:22:07;;;;;;;;;75.75;60.00;;;;;2.48;63.82;102150.34;5071917;27;45558;-76
2022/12/17 19:24:35;;;;;;;;;78.25;61.75;;;;;2.46;64.07;102138.06;5069249;27;45392;-73
2022/12/17 19:27:01;;;;;;;;;77.00;60.00;;;;;2.39;63.29;102131.03;5077179;27;45666;-75
2022/12/17 19:29:26;;;;;;;;;71.25;53.50;;;;;2.34;63.64;102142.47;5107229;27;45542;-76
2022/12/17 19:31:51;;;;;;;;;73.00;56.75;;;;;2.31;63.64;102136.34;5074149;27;45710;-76
2022/12/17 19:34:18;;;;;;;;;73.50;59.75;;;;;2.22;63.38;102113.53;5077131;27;45349;-75
2022/12/17 19:36:44;;;;;;;;;72.00;56.00;;;;;2.25;63.22;102134.56;5067183;27;46158;-76
2022/12/17 19:39:13;;;;;;;;;63.75;54.00;;;;;2.24;62.38;102119.69;5073958;27;45546;-75
2022/12/17 19:41:38;;;;;;;;;64.50;53.50;;;;;1.78;62.91;102056.59;5072545;27;45528;-76
2022/12/17 19:44:06;;;;;;;;;61.00;50.00;;;;;2.10;62.77;102129.34;5082599;27;45369;-76
2022/12/17 19:46:34;;;;;;;;;67.00;53.75;;;;;1.80;63.34;102100.44;5083595;27;47149;-76
2022/12/17 19:49:01;;;;;;;;;67.75;56.00;;;;;2.03;62.40;102135.53;5105352;27;45401;-76
2022/12/17 19:51:28;;;;;;;;;69.50;54.25;;;;;1.72;61.85;102073.25;5076717;27;45479;-76
2022/12/17 19:53:54;;;;;;;;;74.50;56.00;;;;;2.07;62.59;102134.63;5084202;27;45402;-76
2022/12/17 19:56:24;;;;;;;;;63.75;52.75;;;;;2.21;62.38;102138.09;5073956;27;46516;-75
2022/12/17 19:58:51;;;;;;;;;59.25;49.50;;;;;2.08;62.85;102139.00;5074103;27;45509;-76
2022/12/17 20:01:20;;;;;;;;;48.25;34.50;;;;;1.83;61.59;102096.94;5072914;27;45620;-76
2022/12/17 20:03:46;;;;;;;;;40.75;35.25;;;;;2.05;61.79;102163.56;5082520;27;45414;-75
2022/12/17 20:06:14;;;;;;;;;60.75;51.25;;;;;2.01;61.54;102156.56;5075744;27;47118;-75
2022/12/17 20:08:39;;;;;;;;;65.25;51.50;;;;;1.36;61.73;102056.63;5084674;27;45361;-76
2022/12/17 20:11:31;;;;;;;;;69.00;54.00;;;;;1.71;61.55;102120.63;5078595;27;45531;-77
2022/12/17 20:13:57;;;;;;;;;65.00;53.75;;;;;1.71;62.64;102115.38;5076908;27;45333;-76
2022/12/17 20:16:22;;;;;;;;;64.50;53.25;;;;;1.73;62.34;102116.22;5083957;27;46282;-76
2022/12/17 20:18:48;;;;;;;;;54.75;47.50;;;;;1.61;61.48;102089.06;5097638;27;45922;-76
2022/12/17 20:21:14;;;;;;;;;67.00;55.00;;;;;1.81;62.13;102103.97;5066995;27;45536;-77
2022/12/17 20:23:39;;;;;;;;;67.00;53.25;;;;;1.68;61.82;102089.94;5079394;27;45561;-76
2022/12/17 20:26:07;;;;;;;;;69.00;54.50;;;;;2.04;61.79;102168.84;5095092;27;45595;-76
2022/12/17 20:28:33;;;;;;;;;62.50;51.25;;;;;1.89;61.68;102178.53;5082789;27;45331;-76
2022/12/17 20:31:00;;;;;;;;;54.25;43.75;;;;;1.45;62.07;102114.47;5088924;27;45426;-75
2022/12/17 20:33:26;;;;;;;;;56.50;45.50;;;;;1.88;62.39;102171.50;5078108;27;45533;-75
2022/12/17 20:35:52;;;;;;;;;67.25;52.00;;;;;2.05;61.60;102170.59;5081654;27;45322;-75
2022/12/17 20:38:18;;;;;;;;;60.75;49.50;;;;;1.94;61.23;102152.19;5077749;27;45468;-75
2022/12/17 20:40:43;;;;;;;;;59.00;44.50;;;;;1.55;61.65;102107.47;5082583;27;45317;-75
2022/12/17 20:43:09;;;;;;;;;64.25;52.50;;;;;1.97;62.01;102171.50;5077407;27;45527;-75
2022/12/17 20:45:34;;;;;;;;;64.50;51.50;;;;;1.98;61.14;102167.09;5076732;27;45329;-74
2022/12/17 20:48:00;;;;;;;;;66.25;53.75;;;;;1.54;61.59;102094.31;5071456;27;45619;-75
2022/12/17 20:50:25;;;;;;;;;62.00;51.50;;;;;1.91;61.76;102189.91;5084080;27;45396;-75
2022/12/17 20:52:51;;;;;;;;;68.75;53.50;;;;;1.93;61.32;102180.28;5081707;27;45418;-74
2022/12/17 20:55:16;;;;;;;;;64.75;52.25;;;;;2.04;61.85;102192.53;5090748;27;45945;-74
2022/12/17 20:57:42;;;;;;;;;67.00;52.50;;;;;2.11;62.33;102189.03;5077620;27;45380;-74
2022/12/17 21:00:08;;;;;;;;;67.75;52.25;;;;;2.11;61.57;102184.63;5081359;27;45448;-73
2022/12/17 21:02:35;;;;;;;;;69.00;55.50;;;;;1.92;61.76;102183.78;5082112;27;45876;-73
2022/12/17 21:05:00;;;;;;;;;71.75;57.50;;;;;1.98;62.38;102188.16;5083241;27;46628;-74
2022/12/17 21:07:26;;;;;;;;;67.50;53.25;;;;;1.65;62.38;102127.63;5091091;27;45618;-73
2022/12/17 21:09:51;;;;;;;;;70.50;57.75;;;;;2.12;62.22;102182.88;5076787;27;45333;-74
2022/12/17 21:12:17;;;;;;;;;68.25;55.25;;;;;1.79;61.88;102124.13;5085705;27;45403;-74
2022/12/17 21:14:42;;;;;;;;;69.50;57.75;;;;;2.04;61.34;102163.56;5083822;27;47770;-74
2022/12/17 21:17:08;;;;;;;;;68.75;56.50;;;;;1.98;61.89;102189.06;5109081;27;45402;-74
2022/12/17 21:19:33;;;;;;;;;69.50;55.75;;;;;2.12;62.19;102196.03;5062830;27;45388;-74
2022/12/17 21:21:58;;;;;;;;;66.25;55.75;;;;;1.88;61.53;102126.75;5091598;27;45411;-73
2022/12/17 21:24:24;;;;;;;;;75.75;53.50;;;;;2.20;61.19;102175.88;5086960;27;45310;-74
2022/12/17 21:26:49;;;;;;;;;75.00;57.25;;;;;1.96;61.05;102103.94;5084653;27;45763;-74
2022/12/17 21:29:15;;;;;;;;;66.00;52.50;;;;;1.99;61.68;102121.47;5092329;27;45471;-74
2022/12/17 21:31:44;;;;;;;;;76.50;57.75;;;;;2.13;61.96;102161.84;5094237;27;45983;-74
2022/12/17 21:34:15;;;;;;;;;60.00;51.25;;;;;2.04;62.14;102160.94;5078475;27;46381;-74
2022/12/17 21:36:40;;;;;;;;;68.00;54.25;;;;;1.99;61.83;102167.09;5077300;27;45365;-74
2022/12/17 21:39:08;;;;;;;;;68.75;54.00;;;;;1.85;62.60;102160.97;5080796;27;45391;-75
2022/12/17 21:41:34;;;;;;;;;71.00;57.50;;;;;1.87;62.44;102159.22;5094039;27;45283;-74
2022/12/17 21:44:04;;;;;;;;;69.00;53.25;;;;;1.84;62.35;102146.94;5083197;27;46123;-75
2022/12/17 21:46:30;;;;;;;;;70.25;52.75;;;;;1.62;62.21;102116.22;5087083;27;45411;-75
2022/12/17 21:48:57;;;;;;;;;63.50;53.25;;;;;1.62;62.29;102096.09;5090065;27;45421;-74
2022/12/17 21:51:23;;;;;;;;;66.25;53.75;;;;;0.99;61.47;101978.63;5079156;27;45788;-75
2022/12/17 21:53:58;;;;;;;;;70.75;54.50;;;;;1.90;62.56;102148.66;5092717;27;46182;-75
2022/12/17 21:56:24;;;;;;;;;67.00;56.75;;;;;1.71;62.23;102104.84;5086490;27;45490;-75
2022/12/17 21:58:54;;;;;;;;;61.25;47.50;;;;;2.01;62.53;102132.88;5086179;27;45369;-74
2022/12/17 22:01:22;;;;;;;;;64.75;52.75;;;;;1.66;61.95;102054.84;5093881;27;45357;-75
2022/12/17 22:03:48;;;;;;;;;69.00;54.00;;;;;1.63;61.64;102049.59;5081253;27;45681;-75
2022/12/17 22:06:16;;;;;;;;;64.75;53.50;;;;;2.12;61.79;102132.84;5107083;27;45456;-73
2022/12/17 22:08:45;;;;;;;;;66.75;49.00;;;;;2.08;61.76;102131.09;5085282;27;45408;-74
2022/12/17 22:11:18;;;;;;;;;64.00;53.25;;;;;1.83;62.07;102112.72;5126300;27;45395;-73
2022/12/17 22:14:09;;;;;;;;;68.00;53.00;;;;;1.83;62.40;102132.00;5064071;27;45484;-73
2022/12/17 22:16:35;;;;;;;;;58.50;47.00;;;;;1.66;62.42;102126.78;5077390;27;45496;-74
2022/12/17 22:19:07;;;;;;;;;57.25;47.00;;;;;1.59;63.00;102132.88;5082139;27;45294;-73
2022/12/17 22:21:38;;;;;;;;;60.75;48.25;;;;;1.57;62.16;102110.97;5093333;27;45290;-73
2022/12/17 22:24:04;;;;;;;;;59.75;50.25;;;;;1.66;62.78;102134.66;5082273;27;46326;-74
2022/12/17 22:26:30;;;;;;;;;65.75;53.50;;;;;1.09;62.17;102031.19;5084678;27;45408;-73
2022/12/17 22:28:55;;;;;;;;;64.75;52.50;;;;;1.75;63.03;102132.91;5090660;27;45448;-73
2022/12/17 22:34:07;;;;;;;;;61.75;53.00;;;;;1.80;62.14;102141.69;5089608;27;45484;-72
2022/12/17 22:36:33;;;;;;;;;64.00;52.00;;;;;1.85;62.03;102134.66;5076228;28;45484;-74
2022/12/17 22:39:00;;;;;;;;;56.50;47.50;;;;;1.45;61.79;102058.38;5079070;27;45529;-74
2022/12/17 22:44:10;;;;;;;;;69.25;53.25;;;;;1.93;61.69;102109.22;5084452;27;45301;-74
2022/12/17 22:46:35;;;;;;;;;64.25;51.75;;;;;1.38;61.95;102038.22;5084271;27;45437;-74
2022/12/17 22:49:01;;;;;;;;;63.50;50.50;;;;;1.94;61.45;102118.84;5124412;27;45337;-73
2022/12/17 22:51:26;;;;;;;;;53.75;47.00;;;;;1.90;61.62;102098.66;5079957;27;45368;-73
2022/12/17 22:53:52;;;;;;;;;67.25;54.50;;;;;2.05;61.83;102110.06;5091533;27;46501;-75
2022/12/17 22:56:19;;;;;;;;;66.00;54.50;;;;;2.10;61.19;102103.91;5085969;27;45330;-74
2022/12/17 22:58:45;;;;;;;;;59.25;50.50;;;;;1.24;61.33;101983.00;5085222;27;45357;-74
2022/12/17 23:01:11;;;;;;;;;65.50;51.25;;;;;2.04;61.52;102111.81;5092938;27;45441;-74
2022/12/17 23:03:37;;;;;;;;;63.00;48.75;;;;;1.45;61.04;102024.19;5077764;27;47648;-74
2022/12/17 23:06:13;;;;;;;;;52.75;46.25;;;;;1.48;60.68;102043.47;5089898;27;45505;-74
2022/12/17 23:08:39;;;;;;;;;64.25;50.75;;;;;1.36;60.55;102032.09;5100062;27;45278;-74
2022/12/17 23:11:14;;;;;;;;;46.75;42.50;;;;;1.35;60.88;102041.75;5089405;27;45485;-74
2022/12/17 23:13:40;;;;;;;;;58.75;44.75;;;;;1.68;61.40;102108.34;5076889;27;45520;-74
2022/12/17 23:16:06;;;;;;;;;55.25;45.00;;;;;1.72;61.39;102102.22;5078521;27;45666;-74
2022/12/17 23:18:32;;;;;;;;;59.00;48.50;;;;;1.53;61.28;102064.53;5090454;27;45448;-74
2022/12/17 23:21:11;;;;;;;;;52.50;46.25;;;;;1.58;60.95;102099.59;5088482;27;45638;-74
2022/12/17 23:23:37;;;;;;;;;62.75;49.75;;;;;1.15;61.04;102049.63;5077149;27;45730;-74
2022/12/17 23:26:27;;;;;;;;;63.75;50.25;;;;;1.28;61.20;102090.81;5076944;27;45381;-74
2022/12/17 23:28:58;;;;;;;;;56.75;47.50;;;;;0.81;61.41;102020.66;5088766;27;45539;-74
2022/12/17 23:31:25;;;;;;;;;61.25;49.75;;;;;1.25;61.40;102105.72;5078935;27;45327;-74
2022/12/17 23:33:50;;;;;;;;;58.00;46.25;;;;;0.49;61.95;101961.06;5090501;27;45403;-74
2022/12/17 23:36:19;;;;;;;;;60.25;47.75;;;;;0.74;61.30;102019.75;5083847;27;45346;-74
2022/12/17 23:38:45;;;;;;;;;59.25;48.25;;;;;0.42;61.14;101936.56;5083012;27;45342;-75
2022/12/17 23:41:16;;;;;;;;;62.00;51.50;;;;;1.22;61.14;102088.16;5091332;27;45340;-74
2022/12/17 23:43:42;;;;;;;;;65.25;49.00;;;;;0.90;61.92;102046.94;5062065;27;46624;-74
2022/12/17 23:46:09;;;;;;;;;65.75;51.25;;;;;0.72;61.50;102010.16;5088431;27;45292;-75
2022/12/17 23:48:37;;;;;;;;;56.25;45.00;;;;;0.37;61.74;101968.94;5085100;27;45446;-75
2022/12/17 23:51:03;;;;;;;;;67.75;54.25;;;;;-0.01;61.87;101915.44;5080068;27;45405;-75
2022/12/17 23:53:30;;;;;;;;;51.75;44.50;;;;;1.18;62.07;102105.69;5091748;27;45539;-75
2022/12/17 23:56:06;;;;;;;;;66.25;50.25;;;;;1.09;61.76;102089.91;5079311;27;45315;-74
2022/12/17 23:58:33;;;;;;;;;60.50;50.50;;;;;0.69;61.77;102011.03;5083271;27;45369;-74
